sensor_id;sensor_type;location;lat;lon;timestamp;P1;durP1;ratioP1;P2;durP2;ratioP2
7029;SDS011;3556;53.500;10.176;2023-04-30T00:00:29;13.30;;;4.77;;
7029;SDS011;3556;53.500;10.176;2023-04-30T00:02:54;10.23;;;4.13;;
7029;SDS011;3556;53.500;10.176;2023-04-30T00:05:20;9.83;;;4.53;;
7029;SDS011;3556;53.500;10.176;2023-04-30T00:07:46;4.30;;;3.43;;
7029;SDS011;3556;53.500;10.176;2023-04-30T00:10:11;9.33;;;4.53;;
7029;SDS011;3556;53.500;10.176;2023-04-30T00:12:37;9.13;;;4.20;;
7029;SDS011;3556;53.500;10.176;2023-04-30T00:15:03;6.57;;;4.20;;
7029;SDS011;3556;53.500;10.176;2023-04-30T00:17:29;6.93;;;3.90;;
7029;SDS011;3556;53.500;10.176;2023-04-30T00:19:54;6.20;;;3.73;;
7029;SDS011;3556;53.500;10.176;2023-04-30T00:22:20;7.10;;;4.03;;
7029;SDS011;3556;53.500;10.176;2023-04-30T00:24:46;7.20;;;4.30;;
7029;SDS011;3556;53.500;10.176;2023-04-30T00:27:11;8.40;;;4.50;;
7029;SDS011;3556;53.500;10.176;2023-04-30T00:29:37;6.47;;;3.70;;
7029;SDS011;3556;53.500;10.176;2023-04-30T00:32:03;10.33;;;3.70;;
7029;SDS011;3556;53.500;10.176;2023-04-30T00:34:28;5.13;;;3.70;;
7029;SDS011;3556;53.500;10.176;2023-04-30T00:36:54;10.23;;;3.63;;
7029;SDS011;3556;53.500;10.176;2023-04-30T00:39:20;4.07;;;3.70;;
7029;SDS011;3556;53.500;10.176;2023-04-30T00:41:45;10.00;;;4.20;;
7029;SDS011;3556;53.500;10.176;2023-04-30T00:44:11;8.50;;;3.90;;
7029;SDS011;3556;53.500;10.176;2023-04-30T00:46:36;6.90;;;3.70;;
7029;SDS011;3556;53.500;10.176;2023-04-30T00:49:02;11.27;;;3.97;;
7029;SDS011;3556;53.500;10.176;2023-04-30T00:51:30;9.83;;;4.33;;
7029;SDS011;3556;53.500;10.176;2023-04-30T00:53:57;6.10;;;3.40;;
7029;SDS011;3556;53.500;10.176;2023-04-30T00:56:30;16.50;;;4.93;;
7029;SDS011;3556;53.500;10.176;2023-04-30T00:58:56;4.40;;;3.60;;
7029;SDS011;3556;53.500;10.176;2023-04-30T01:01:23;16.87;;;3.97;;
7029;SDS011;3556;53.500;10.176;2023-04-30T01:03:50;5.80;;;3.80;;
7029;SDS011;3556;53.500;10.176;2023-04-30T01:06:16;10.23;;;3.50;;
7029;SDS011;3556;53.500;10.176;2023-04-30T01:08:41;7.43;;;4.23;;
7029;SDS011;3556;53.500;10.176;2023-04-30T01:13:51;16.20;;;3.97;;
7029;SDS011;3556;53.500;10.176;2023-04-30T01:16:29;7.70;;;4.33;;
7029;SDS011;3556;53.500;10.176;2023-04-30T01:19:01;9.27;;;3.57;;
7029;SDS011;3556;53.500;10.176;2023-04-30T01:21:32;14.73;;;4.33;;
7029;SDS011;3556;53.500;10.176;2023-04-30T01:27:12;10.60;;;3.60;;
7029;SDS011;3556;53.500;10.176;2023-04-30T01:29:55;7.57;;;3.87;;
7029;SDS011;3556;53.500;10.176;2023-04-30T01:32:21;7.67;;;3.90;;
7029;SDS011;3556;53.500;10.176;2023-04-30T01:34:47;12.53;;;3.90;;
7029;SDS011;3556;53.500;10.176;2023-04-30T01:37:15;13.17;;;4.40;;
7029;SDS011;3556;53.500;10.176;2023-04-30T01:42:35;12.97;;;4.10;;
7029;SDS011;3556;53.500;10.176;2023-04-30T01:50:24;10.37;;;3.50;;
7029;SDS011;3556;53.500;10.176;2023-04-30T01:52:51;5.83;;;3.90;;
7029;SDS011;3556;53.500;10.176;2023-04-30T01:55:40;4.73;;;3.80;;
7029;SDS011;3556;53.500;10.176;2023-04-30T01:58:17;8.13;;;4.40;;
7029;SDS011;3556;53.500;10.176;2023-04-30T02:00:46;7.30;;;4.30;;
7029;SDS011;3556;53.500;10.176;2023-04-30T02:03:12;4.73;;;3.90;;
7029;SDS011;3556;53.500;10.176;2023-04-30T02:05:37;4.53;;;3.80;;
7029;SDS011;3556;53.500;10.176;2023-04-30T02:08:03;7.70;;;4.07;;
7029;SDS011;3556;53.500;10.176;2023-04-30T02:10:29;5.43;;;3.90;;
7029;SDS011;3556;53.500;10.176;2023-04-30T02:12:54;6.10;;;4.00;;
7029;SDS011;3556;53.500;10.176;2023-04-30T02:15:20;6.63;;;3.20;;
7029;SDS011;3556;53.500;10.176;2023-04-30T02:17:46;7.60;;;4.10;;
7029;SDS011;3556;53.500;10.176;2023-04-30T02:20:12;7.00;;;4.00;;
7029;SDS011;3556;53.500;10.176;2023-04-30T02:22:37;9.20;;;4.07;;
7029;SDS011;3556;53.500;10.176;2023-04-30T02:25:03;6.33;;;3.40;;
7029;SDS011;3556;53.500;10.176;2023-04-30T02:27:30;5.60;;;3.90;;
7029;SDS011;3556;53.500;10.176;2023-04-30T02:29:56;7.47;;;4.07;;
7029;SDS011;3556;53.500;10.176;2023-04-30T02:32:22;6.23;;;4.13;;
7029;SDS011;3556;53.500;10.176;2023-04-30T02:34:48;8.27;;;3.70;;
7029;SDS011;3556;53.500;10.176;2023-04-30T02:37:14;10.83;;;4.27;;
7029;SDS011;3556;53.500;10.176;2023-04-30T02:39:40;8.03;;;4.30;;
7029;SDS011;3556;53.500;10.176;2023-04-30T02:42:06;7.63;;;3.83;;
7029;SDS011;3556;53.500;10.176;2023-04-30T02:44:32;3.93;;;3.50;;
7029;SDS011;3556;53.500;10.176;2023-04-30T02:46:58;6.87;;;4.50;;
7029;SDS011;3556;53.500;10.176;2023-04-30T02:49:24;3.70;;;3.50;;
7029;SDS011;3556;53.500;10.176;2023-04-30T02:51:50;6.07;;;4.03;;
7029;SDS011;3556;53.500;10.176;2023-04-30T02:54:16;5.30;;;4.00;;
7029;SDS011;3556;53.500;10.176;2023-04-30T02:56:42;6.60;;;3.57;;
7029;SDS011;3556;53.500;10.176;2023-04-30T02:59:08;9.43;;;4.50;;
7029;SDS011;3556;53.500;10.176;2023-04-30T03:01:34;9.73;;;4.10;;
7029;SDS011;3556;53.500;10.176;2023-04-30T03:04:00;10.70;;;4.63;;
7029;SDS011;3556;53.500;10.176;2023-04-30T03:06:27;4.70;;;4.30;;
7029;SDS011;3556;53.500;10.176;2023-04-30T03:08:53;4.37;;;3.80;;
7029;SDS011;3556;53.500;10.176;2023-04-30T03:11:19;13.87;;;4.17;;
7029;SDS011;3556;53.500;10.176;2023-04-30T03:13:46;3.53;;;3.33;;
7029;SDS011;3556;53.500;10.176;2023-04-30T03:16:16;6.73;;;4.10;;
7029;SDS011;3556;53.500;10.176;2023-04-30T03:18:45;3.80;;;3.50;;
7029;SDS011;3556;53.500;10.176;2023-04-30T03:21:12;5.93;;;4.10;;
7029;SDS011;3556;53.500;10.176;2023-04-30T03:23:37;7.57;;;3.53;;
7029;SDS011;3556;53.500;10.176;2023-04-30T03:26:03;5.97;;;3.23;;
7029;SDS011;3556;53.500;10.176;2023-04-30T03:28:29;10.67;;;3.43;;
7029;SDS011;3556;53.500;10.176;2023-04-30T03:30:54;6.50;;;4.10;;
7029;SDS011;3556;53.500;10.176;2023-04-30T03:33:20;4.23;;;3.80;;
7029;SDS011;3556;53.500;10.176;2023-04-30T03:35:46;12.00;;;4.00;;
7029;SDS011;3556;53.500;10.176;2023-04-30T03:38:11;4.70;;;3.60;;
7029;SDS011;3556;53.500;10.176;2023-04-30T03:40:37;4.97;;;4.50;;
7029;SDS011;3556;53.500;10.176;2023-04-30T03:43:02;11.33;;;4.33;;
7029;SDS011;3556;53.500;10.176;2023-04-30T03:45:28;11.70;;;4.50;;
7029;SDS011;3556;53.500;10.176;2023-04-30T03:47:54;5.57;;;4.63;;
7029;SDS011;3556;53.500;10.176;2023-04-30T03:50:19;6.00;;;3.50;;
7029;SDS011;3556;53.500;10.176;2023-04-30T03:52:45;8.63;;;4.40;;
7029;SDS011;3556;53.500;10.176;2023-04-30T03:55:11;4.83;;;4.43;;
7029;SDS011;3556;53.500;10.176;2023-04-30T03:57:37;15.37;;;5.60;;
7029;SDS011;3556;53.500;10.176;2023-04-30T04:00:04;22.30;;;4.90;;
7029;SDS011;3556;53.500;10.176;2023-04-30T04:02:48;9.63;;;5.40;;
7029;SDS011;3556;53.500;10.176;2023-04-30T04:05:14;7.43;;;4.50;;
7029;SDS011;3556;53.500;10.176;2023-04-30T04:07:40;8.00;;;4.50;;
7029;SDS011;3556;53.500;10.176;2023-04-30T04:10:06;7.83;;;4.63;;
7029;SDS011;3556;53.500;10.176;2023-04-30T04:12:32;6.77;;;4.80;;
7029;SDS011;3556;53.500;10.176;2023-04-30T04:14:58;6.70;;;4.90;;
7029;SDS011;3556;53.500;10.176;2023-04-30T04:17:23;9.47;;;4.93;;
7029;SDS011;3556;53.500;10.176;2023-04-30T04:19:49;8.73;;;5.33;;
7029;SDS011;3556;53.500;10.176;2023-04-30T04:22:15;7.33;;;4.83;;
7029;SDS011;3556;53.500;10.176;2023-04-30T04:24:41;14.10;;;4.90;;
7029;SDS011;3556;53.500;10.176;2023-04-30T04:27:06;9.93;;;5.43;;
7029;SDS011;3556;53.500;10.176;2023-04-30T04:29:32;9.03;;;5.20;;
7029;SDS011;3556;53.500;10.176;2023-04-30T04:31:58;9.30;;;5.37;;
7029;SDS011;3556;53.500;10.176;2023-04-30T04:34:28;7.87;;;4.70;;
7029;SDS011;3556;53.500;10.176;2023-04-30T04:36:54;7.90;;;4.90;;
7029;SDS011;3556;53.500;10.176;2023-04-30T04:39:19;17.93;;;5.33;;
7029;SDS011;3556;53.500;10.176;2023-04-30T04:41:45;10.87;;;5.50;;
7029;SDS011;3556;53.500;10.176;2023-04-30T04:44:11;9.90;;;5.50;;
7029;SDS011;3556;53.500;10.176;2023-04-30T04:46:36;9.13;;;5.53;;
7029;SDS011;3556;53.500;10.176;2023-04-30T04:49:02;12.63;;;5.23;;
7029;SDS011;3556;53.500;10.176;2023-04-30T04:51:28;14.60;;;6.13;;
7029;SDS011;3556;53.500;10.176;2023-04-30T04:53:53;5.60;;;5.10;;
7029;SDS011;3556;53.500;10.176;2023-04-30T04:56:19;8.87;;;5.43;;
7029;SDS011;3556;53.500;10.176;2023-04-30T04:58:45;11.77;;;5.40;;
7029;SDS011;3556;53.500;10.176;2023-04-30T05:01:11;17.70;;;6.50;;
7029;SDS011;3556;53.500;10.176;2023-04-30T05:03:37;10.43;;;5.00;;
7029;SDS011;3556;53.500;10.176;2023-04-30T05:06:03;14.63;;;5.23;;
7029;SDS011;3556;53.500;10.176;2023-04-30T05:08:29;12.90;;;4.90;;
7029;SDS011;3556;53.500;10.176;2023-04-30T05:10:55;6.87;;;4.77;;
7029;SDS011;3556;53.500;10.176;2023-04-30T05:13:20;13.03;;;5.53;;
7029;SDS011;3556;53.500;10.176;2023-04-30T05:15:48;11.17;;;4.67;;
7029;SDS011;3556;53.500;10.176;2023-04-30T05:18:15;11.10;;;4.60;;
7029;SDS011;3556;53.500;10.176;2023-04-30T05:20:40;7.40;;;4.53;;
7029;SDS011;3556;53.500;10.176;2023-04-30T05:23:06;4.67;;;4.20;;
7029;SDS011;3556;53.500;10.176;2023-04-30T05:25:32;4.70;;;4.20;;
7029;SDS011;3556;53.500;10.176;2023-04-30T05:27:57;5.63;;;5.10;;
7029;SDS011;3556;53.500;10.176;2023-04-30T05:30:23;8.90;;;6.30;;
7029;SDS011;3556;53.500;10.176;2023-04-30T05:32:49;15.30;;;8.83;;
7029;SDS011;3556;53.500;10.176;2023-04-30T05:35:16;17.60;;;9.97;;
7029;SDS011;3556;53.500;10.176;2023-04-30T05:37:42;17.67;;;8.80;;
7029;SDS011;3556;53.500;10.176;2023-04-30T05:40:08;10.33;;;6.73;;
7029;SDS011;3556;53.500;10.176;2023-04-30T05:42:35;11.13;;;7.87;;
7029;SDS011;3556;53.500;10.176;2023-04-30T05:45:02;12.57;;;6.90;;
7029;SDS011;3556;53.500;10.176;2023-04-30T05:47:28;14.23;;;7.20;;
7029;SDS011;3556;53.500;10.176;2023-04-30T05:49:53;15.77;;;7.33;;
7029;SDS011;3556;53.500;10.176;2023-04-30T05:52:19;22.97;;;7.20;;
7029;SDS011;3556;53.500;10.176;2023-04-30T05:54:45;22.37;;;9.00;;
7029;SDS011;3556;53.500;10.176;2023-04-30T05:57:12;17.00;;;8.17;;
7029;SDS011;3556;53.500;10.176;2023-04-30T05:59:37;15.33;;;7.13;;
7029;SDS011;3556;53.500;10.176;2023-04-30T06:02:03;10.20;;;6.50;;
7029;SDS011;3556;53.500;10.176;2023-04-30T06:04:29;11.50;;;6.90;;
7029;SDS011;3556;53.500;10.176;2023-04-30T06:06:55;24.03;;;8.37;;
7029;SDS011;3556;53.500;10.176;2023-04-30T06:09:21;26.70;;;7.67;;
7029;SDS011;3556;53.500;10.176;2023-04-30T06:11:46;11.00;;;7.37;;
7029;SDS011;3556;53.500;10.176;2023-04-30T06:14:14;16.50;;;7.43;;
7029;SDS011;3556;53.500;10.176;2023-04-30T06:16:41;14.83;;;7.70;;
7029;SDS011;3556;53.500;10.176;2023-04-30T06:19:08;8.90;;;5.80;;
7029;SDS011;3556;53.500;10.176;2023-04-30T06:21:34;15.37;;;6.80;;
7029;SDS011;3556;53.500;10.176;2023-04-30T06:23:59;24.23;;;7.90;;
7029;SDS011;3556;53.500;10.176;2023-04-30T06:26:25;19.53;;;6.83;;
7029;SDS011;3556;53.500;10.176;2023-04-30T06:28:51;11.20;;;5.17;;
7029;SDS011;3556;53.500;10.176;2023-04-30T06:31:17;7.90;;;5.70;;
7029;SDS011;3556;53.500;10.176;2023-04-30T06:33:42;5.77;;;5.00;;
7029;SDS011;3556;53.500;10.176;2023-04-30T06:36:08;6.07;;;3.70;;
7029;SDS011;3556;53.500;10.176;2023-04-30T06:38:34;9.33;;;4.73;;
7029;SDS011;3556;53.500;10.176;2023-04-30T06:40:59;17.50;;;4.43;;
7029;SDS011;3556;53.500;10.176;2023-04-30T06:43:25;6.83;;;3.33;;
7029;SDS011;3556;53.500;10.176;2023-04-30T06:45:50;6.03;;;3.33;;
7029;SDS011;3556;53.500;10.176;2023-04-30T06:48:16;12.17;;;3.90;;
7029;SDS011;3556;53.500;10.176;2023-04-30T06:50:42;3.77;;;3.50;;
7029;SDS011;3556;53.500;10.176;2023-04-30T06:53:10;10.53;;;3.20;;
7029;SDS011;3556;53.500;10.176;2023-04-30T06:55:36;7.73;;;3.60;;
7029;SDS011;3556;53.500;10.176;2023-04-30T06:58:02;8.73;;;3.53;;
7029;SDS011;3556;53.500;10.176;2023-04-30T07:00:29;9.10;;;3.70;;
7029;SDS011;3556;53.500;10.176;2023-04-30T07:02:55;4.30;;;3.20;;
7029;SDS011;3556;53.500;10.176;2023-04-30T07:05:24;7.67;;;3.20;;
7029;SDS011;3556;53.500;10.176;2023-04-30T07:07:50;9.73;;;3.23;;
7029;SDS011;3556;53.500;10.176;2023-04-30T07:10:16;10.07;;;3.30;;
7029;SDS011;3556;53.500;10.176;2023-04-30T07:12:42;9.77;;;3.53;;
7029;SDS011;3556;53.500;10.176;2023-04-30T07:15:08;4.83;;;3.53;;
7029;SDS011;3556;53.500;10.176;2023-04-30T07:17:34;9.23;;;3.50;;
7029;SDS011;3556;53.500;10.176;2023-04-30T07:20:01;9.40;;;3.50;;
7029;SDS011;3556;53.500;10.176;2023-04-30T07:22:28;5.90;;;3.10;;
7029;SDS011;3556;53.500;10.176;2023-04-30T07:24:54;5.37;;;3.00;;
7029;SDS011;3556;53.500;10.176;2023-04-30T07:27:20;3.03;;;2.83;;
7029;SDS011;3556;53.500;10.176;2023-04-30T07:29:45;4.50;;;3.20;;
7029;SDS011;3556;53.500;10.176;2023-04-30T07:32:11;5.33;;;3.20;;
7029;SDS011;3556;53.500;10.176;2023-04-30T07:34:37;6.90;;;3.43;;
7029;SDS011;3556;53.500;10.176;2023-04-30T07:37:03;8.00;;;3.43;;
7029;SDS011;3556;53.500;10.176;2023-04-30T07:39:28;9.93;;;3.10;;
7029;SDS011;3556;53.500;10.176;2023-04-30T07:41:55;7.60;;;3.37;;
7029;SDS011;3556;53.500;10.176;2023-04-30T07:44:21;10.27;;;3.80;;
7029;SDS011;3556;53.500;10.176;2023-04-30T07:46:46;3.70;;;3.40;;
7029;SDS011;3556;53.500;10.176;2023-04-30T07:49:12;11.57;;;3.27;;
7029;SDS011;3556;53.500;10.176;2023-04-30T07:51:37;6.13;;;3.20;;
7029;SDS011;3556;53.500;10.176;2023-04-30T07:54:03;4.60;;;3.10;;
7029;SDS011;3556;53.500;10.176;2023-04-30T07:56:29;6.63;;;3.40;;
7029;SDS011;3556;53.500;10.176;2023-04-30T07:58:55;6.77;;;3.60;;
7029;SDS011;3556;53.500;10.176;2023-04-30T08:01:20;7.53;;;3.43;;
7029;SDS011;3556;53.500;10.176;2023-04-30T08:03:46;3.10;;;2.80;;
7029;SDS011;3556;53.500;10.176;2023-04-30T08:06:14;4.87;;;3.40;;
7029;SDS011;3556;53.500;10.176;2023-04-30T08:08:40;7.50;;;3.17;;
7029;SDS011;3556;53.500;10.176;2023-04-30T08:11:05;5.17;;;3.23;;
7029;SDS011;3556;53.500;10.176;2023-04-30T08:13:31;15.37;;;3.37;;
7029;SDS011;3556;53.500;10.176;2023-04-30T08:15:56;9.30;;;3.57;;
7029;SDS011;3556;53.500;10.176;2023-04-30T08:18:22;5.83;;;3.00;;
7029;SDS011;3556;53.500;10.176;2023-04-30T08:20:47;5.67;;;3.20;;
7029;SDS011;3556;53.500;10.176;2023-04-30T08:23:13;7.43;;;3.03;;
7029;SDS011;3556;53.500;10.176;2023-04-30T08:25:40;6.10;;;2.87;;
7029;SDS011;3556;53.500;10.176;2023-04-30T08:28:06;4.10;;;2.80;;
7029;SDS011;3556;53.500;10.176;2023-04-30T08:30:31;9.03;;;3.70;;
7029;SDS011;3556;53.500;10.176;2023-04-30T08:32:57;6.97;;;3.50;;
7029;SDS011;3556;53.500;10.176;2023-04-30T08:35:23;3.53;;;3.07;;
7029;SDS011;3556;53.500;10.176;2023-04-30T08:37:49;10.90;;;3.50;;
7029;SDS011;3556;53.500;10.176;2023-04-30T08:40:14;4.03;;;3.20;;
7029;SDS011;3556;53.500;10.176;2023-04-30T08:42:52;5.03;;;2.87;;
7029;SDS011;3556;53.500;10.176;2023-04-30T08:45:30;5.67;;;3.33;;
7029;SDS011;3556;53.500;10.176;2023-04-30T08:48:01;9.10;;;2.97;;
7029;SDS011;3556;53.500;10.176;2023-04-30T08:50:28;5.47;;;3.37;;
7029;SDS011;3556;53.500;10.176;2023-04-30T08:52:55;4.10;;;3.03;;
7029;SDS011;3556;53.500;10.176;2023-04-30T08:55:22;5.80;;;3.53;;
7029;SDS011;3556;53.500;10.176;2023-04-30T08:57:50;4.00;;;3.27;;
7029;SDS011;3556;53.500;10.176;2023-04-30T09:00:16;5.27;;;3.63;;
7029;SDS011;3556;53.500;10.176;2023-04-30T09:02:41;8.93;;;3.23;;
7029;SDS011;3556;53.500;10.176;2023-04-30T09:05:10;6.83;;;3.20;;
7029;SDS011;3556;53.500;10.176;2023-04-30T09:07:38;7.93;;;3.30;;
7029;SDS011;3556;53.500;10.176;2023-04-30T09:10:30;5.70;;;3.00;;
7029;SDS011;3556;53.500;10.176;2023-04-30T09:13:02;5.37;;;3.10;;
7029;SDS011;3556;53.500;10.176;2023-04-30T09:15:30;5.70;;;3.30;;
7029;SDS011;3556;53.500;10.176;2023-04-30T09:18:10;6.70;;;3.53;;
7029;SDS011;3556;53.500;10.176;2023-04-30T09:20:36;3.97;;;3.03;;
7029;SDS011;3556;53.500;10.176;2023-04-30T09:23:06;11.47;;;3.43;;
7029;SDS011;3556;53.500;10.176;2023-04-30T09:25:42;10.20;;;4.13;;
7029;SDS011;3556;53.500;10.176;2023-04-30T09:28:11;6.87;;;3.13;;
7029;SDS011;3556;53.500;10.176;2023-04-30T09:30:38;8.50;;;3.40;;
7029;SDS011;3556;53.500;10.176;2023-04-30T09:33:05;3.20;;;2.90;;
7029;SDS011;3556;53.500;10.176;2023-04-30T09:35:33;3.47;;;2.90;;
7029;SDS011;3556;53.500;10.176;2023-04-30T09:38:00;4.33;;;3.40;;
7029;SDS011;3556;53.500;10.176;2023-04-30T09:40:39;3.87;;;3.20;;
7029;SDS011;3556;53.500;10.176;2023-04-30T09:43:06;3.80;;;3.20;;
7029;SDS011;3556;53.500;10.176;2023-04-30T09:45:45;3.40;;;3.20;;
7029;SDS011;3556;53.500;10.176;2023-04-30T09:48:22;8.33;;;3.00;;
7029;SDS011;3556;53.500;10.176;2023-04-30T09:50:49;6.00;;;3.67;;
7029;SDS011;3556;53.500;10.176;2023-04-30T09:53:15;4.63;;;3.10;;
7029;SDS011;3556;53.500;10.176;2023-04-30T09:55:46;3.40;;;2.80;;
7029;SDS011;3556;53.500;10.176;2023-04-30T09:58:14;3.50;;;3.20;;
7029;SDS011;3556;53.500;10.176;2023-04-30T10:00:44;9.03;;;3.20;;
7029;SDS011;3556;53.500;10.176;2023-04-30T10:03:12;5.13;;;3.23;;
7029;SDS011;3556;53.500;10.176;2023-04-30T10:05:40;3.93;;;3.20;;
7029;SDS011;3556;53.500;10.176;2023-04-30T10:10:57;9.53;;;3.43;;
7029;SDS011;3556;53.500;10.176;2023-04-30T10:13:28;5.47;;;3.57;;
7029;SDS011;3556;53.500;10.176;2023-04-30T10:15:57;3.60;;;3.00;;
7029;SDS011;3556;53.500;10.176;2023-04-30T10:18:30;3.40;;;3.17;;
7029;SDS011;3556;53.500;10.176;2023-04-30T10:21:06;3.70;;;3.40;;
7029;SDS011;3556;53.500;10.176;2023-04-30T10:23:39;3.10;;;2.90;;
7029;SDS011;3556;53.500;10.176;2023-04-30T10:26:07;3.40;;;3.07;;
7029;SDS011;3556;53.500;10.176;2023-04-30T10:28:36;4.70;;;2.80;;
7029;SDS011;3556;53.500;10.176;2023-04-30T10:31:03;3.37;;;2.97;;
7029;SDS011;3556;53.500;10.176;2023-04-30T10:36:06;3.00;;;2.80;;
7029;SDS011;3556;53.500;10.176;2023-04-30T10:38:37;3.23;;;3.00;;
7029;SDS011;3556;53.500;10.176;2023-04-30T10:41:05;3.30;;;3.00;;
7029;SDS011;3556;53.500;10.176;2023-04-30T10:43:31;9.90;;;3.30;;
7029;SDS011;3556;53.500;10.176;2023-04-30T10:45:59;4.27;;;3.17;;
7029;SDS011;3556;53.500;10.176;2023-04-30T10:48:26;3.33;;;2.77;;
7029;SDS011;3556;53.500;10.176;2023-04-30T10:50:55;5.33;;;3.30;;
7029;SDS011;3556;53.500;10.176;2023-04-30T10:53:22;3.67;;;3.33;;
7029;SDS011;3556;53.500;10.176;2023-04-30T10:55:53;6.90;;;2.80;;
7029;SDS011;3556;53.500;10.176;2023-04-30T10:58:31;8.90;;;2.97;;
7029;SDS011;3556;53.500;10.176;2023-04-30T11:01:11;3.50;;;3.30;;
7029;SDS011;3556;53.500;10.176;2023-04-30T11:03:42;4.63;;;3.37;;
7029;SDS011;3556;53.500;10.176;2023-04-30T11:06:28;3.00;;;2.77;;
7029;SDS011;3556;53.500;10.176;2023-04-30T11:09:40;3.37;;;3.00;;
7029;SDS011;3556;53.500;10.176;2023-04-30T11:14:41;2.87;;;2.67;;
7029;SDS011;3556;53.500;10.176;2023-04-30T11:17:09;6.83;;;3.03;;
7029;SDS011;3556;53.500;10.176;2023-04-30T11:19:46;6.63;;;2.93;;
7029;SDS011;3556;53.500;10.176;2023-04-30T11:22:14;5.53;;;3.60;;
7029;SDS011;3556;53.500;10.176;2023-04-30T11:27:33;3.67;;;3.37;;
7029;SDS011;3556;53.500;10.176;2023-04-30T11:30:01;8.50;;;3.07;;
7029;SDS011;3556;53.500;10.176;2023-04-30T11:32:34;4.07;;;3.57;;
7029;SDS011;3556;53.500;10.176;2023-04-30T11:35:01;9.07;;;3.37;;
7029;SDS011;3556;53.500;10.176;2023-04-30T11:39:56;4.80;;;2.97;;
7029;SDS011;3556;53.500;10.176;2023-04-30T11:42:23;5.80;;;3.37;;
7029;SDS011;3556;53.500;10.176;2023-04-30T11:44:49;3.20;;;2.90;;
7029;SDS011;3556;53.500;10.176;2023-04-30T11:47:15;4.90;;;2.83;;
7029;SDS011;3556;53.500;10.176;2023-04-30T11:49:41;6.70;;;3.10;;
7029;SDS011;3556;53.500;10.176;2023-04-30T11:52:07;2.97;;;2.77;;
7029;SDS011;3556;53.500;10.176;2023-04-30T11:54:37;4.90;;;3.03;;
7029;SDS011;3556;53.500;10.176;2023-04-30T11:57:03;5.30;;;2.87;;
7029;SDS011;3556;53.500;10.176;2023-04-30T11:59:30;3.30;;;2.90;;
7029;SDS011;3556;53.500;10.176;2023-04-30T12:01:56;3.00;;;2.80;;
7029;SDS011;3556;53.500;10.176;2023-04-30T12:04:22;3.07;;;2.87;;
7029;SDS011;3556;53.500;10.176;2023-04-30T12:06:48;3.00;;;2.70;;
7029;SDS011;3556;53.500;10.176;2023-04-30T12:09:14;4.87;;;2.97;;
7029;SDS011;3556;53.500;10.176;2023-04-30T12:11:40;9.97;;;3.00;;
7029;SDS011;3556;53.500;10.176;2023-04-30T12:16:41;6.07;;;3.33;;
7029;SDS011;3556;53.500;10.176;2023-04-30T12:19:15;5.33;;;3.03;;
7029;SDS011;3556;53.500;10.176;2023-04-30T12:21:41;5.27;;;3.53;;
7029;SDS011;3556;53.500;10.176;2023-04-30T12:24:10;3.37;;;3.17;;
7029;SDS011;3556;53.500;10.176;2023-04-30T12:26:37;10.13;;;3.13;;
7029;SDS011;3556;53.500;10.176;2023-04-30T12:29:07;3.97;;;2.90;;
7029;SDS011;3556;53.500;10.176;2023-04-30T12:31:40;3.50;;;3.03;;
7029;SDS011;3556;53.500;10.176;2023-04-30T12:34:07;3.73;;;3.03;;
7029;SDS011;3556;53.500;10.176;2023-04-30T12:36:34;5.90;;;3.20;;
7029;SDS011;3556;53.500;10.176;2023-04-30T12:39:06;3.23;;;2.93;;
7029;SDS011;3556;53.500;10.176;2023-04-30T12:41:41;3.40;;;3.20;;
7029;SDS011;3556;53.500;10.176;2023-04-30T12:44:12;5.97;;;3.10;;
7029;SDS011;3556;53.500;10.176;2023-04-30T12:46:41;7.30;;;2.90;;
7029;SDS011;3556;53.500;10.176;2023-04-30T12:49:07;5.53;;;3.23;;
7029;SDS011;3556;53.500;10.176;2023-04-30T12:51:35;6.10;;;3.20;;
7029;SDS011;3556;53.500;10.176;2023-04-30T12:54:01;2.97;;;2.73;;
7029;SDS011;3556;53.500;10.176;2023-04-30T12:56:26;2.63;;;2.53;;
7029;SDS011;3556;53.500;10.176;2023-04-30T12:58:52;3.20;;;3.00;;
7029;SDS011;3556;53.500;10.176;2023-04-30T13:01:21;2.70;;;2.50;;
7029;SDS011;3556;53.500;10.176;2023-04-30T13:03:48;3.13;;;2.93;;
7029;SDS011;3556;53.500;10.176;2023-04-30T13:06:14;3.10;;;2.90;;
7029;SDS011;3556;53.500;10.176;2023-04-30T13:08:40;3.17;;;2.97;;
7029;SDS011;3556;53.500;10.176;2023-04-30T13:11:06;4.50;;;2.90;;
7029;SDS011;3556;53.500;10.176;2023-04-30T13:13:31;5.93;;;3.30;;
7029;SDS011;3556;53.500;10.176;2023-04-30T13:15:58;7.60;;;3.00;;
7029;SDS011;3556;53.500;10.176;2023-04-30T13:18:23;3.13;;;2.90;;
7029;SDS011;3556;53.500;10.176;2023-04-30T13:20:49;4.80;;;4.47;;
7029;SDS011;3556;53.500;10.176;2023-04-30T13:23:16;5.83;;;3.30;;
7029;SDS011;3556;53.500;10.176;2023-04-30T13:25:42;4.30;;;3.90;;
7029;SDS011;3556;53.500;10.176;2023-04-30T13:28:07;4.00;;;3.63;;
7029;SDS011;3556;53.500;10.176;2023-04-30T13:30:33;4.00;;;3.80;;
7029;SDS011;3556;53.500;10.176;2023-04-30T13:32:59;6.30;;;3.40;;
7029;SDS011;3556;53.500;10.176;2023-04-30T13:35:25;4.00;;;3.37;;
7029;SDS011;3556;53.500;10.176;2023-04-30T13:37:52;3.23;;;3.00;;
7029;SDS011;3556;53.500;10.176;2023-04-30T13:40:18;3.10;;;2.90;;
7029;SDS011;3556;53.500;10.176;2023-04-30T13:42:45;4.20;;;3.43;;
7029;SDS011;3556;53.500;10.176;2023-04-30T13:45:12;3.57;;;3.30;;
7029;SDS011;3556;53.500;10.176;2023-04-30T13:47:37;3.93;;;3.27;;
7029;SDS011;3556;53.500;10.176;2023-04-30T13:50:03;4.37;;;3.67;;
7029;SDS011;3556;53.500;10.176;2023-04-30T13:52:30;5.27;;;3.73;;
7029;SDS011;3556;53.500;10.176;2023-04-30T13:54:56;4.47;;;3.33;;
7029;SDS011;3556;53.500;10.176;2023-04-30T13:57:23;4.83;;;3.20;;
7029;SDS011;3556;53.500;10.176;2023-04-30T13:59:49;3.60;;;3.27;;
7029;SDS011;3556;53.500;10.176;2023-04-30T14:02:15;3.40;;;3.10;;
7029;SDS011;3556;53.500;10.176;2023-04-30T14:04:40;3.90;;;3.50;;
7029;SDS011;3556;53.500;10.176;2023-04-30T14:07:07;4.07;;;3.87;;
7029;SDS011;3556;53.500;10.176;2023-04-30T14:09:33;7.43;;;3.70;;
7029;SDS011;3556;53.500;10.176;2023-04-30T14:11:59;3.40;;;3.10;;
7029;SDS011;3556;53.500;10.176;2023-04-30T14:14:25;5.57;;;3.30;;
7029;SDS011;3556;53.500;10.176;2023-04-30T14:16:51;4.23;;;3.07;;
7029;SDS011;3556;53.500;10.176;2023-04-30T14:19:17;5.33;;;3.27;;
7029;SDS011;3556;53.500;10.176;2023-04-30T14:21:43;4.57;;;3.77;;
7029;SDS011;3556;53.500;10.176;2023-04-30T14:24:08;7.50;;;3.10;;
7029;SDS011;3556;53.500;10.176;2023-04-30T14:26:36;3.90;;;3.40;;
7029;SDS011;3556;53.500;10.176;2023-04-30T14:29:02;3.63;;;3.13;;
7029;SDS011;3556;53.500;10.176;2023-04-30T14:31:28;7.20;;;3.80;;
7029;SDS011;3556;53.500;10.176;2023-04-30T14:33:54;3.60;;;3.30;;
7029;SDS011;3556;53.500;10.176;2023-04-30T14:36:19;5.33;;;3.30;;
7029;SDS011;3556;53.500;10.176;2023-04-30T14:38:45;5.97;;;3.73;;
7029;SDS011;3556;53.500;10.176;2023-04-30T14:41:11;5.23;;;3.50;;
7029;SDS011;3556;53.500;10.176;2023-04-30T14:43:37;4.87;;;3.17;;
7029;SDS011;3556;53.500;10.176;2023-04-30T14:46:02;4.10;;;3.60;;
7029;SDS011;3556;53.500;10.176;2023-04-30T14:48:28;4.30;;;3.47;;
7029;SDS011;3556;53.500;10.176;2023-04-30T14:50:54;7.73;;;3.87;;
7029;SDS011;3556;53.500;10.176;2023-04-30T14:53:19;6.33;;;3.57;;
7029;SDS011;3556;53.500;10.176;2023-04-30T14:55:45;4.70;;;3.90;;
7029;SDS011;3556;53.500;10.176;2023-04-30T14:58:10;3.47;;;3.27;;
7029;SDS011;3556;53.500;10.176;2023-04-30T15:00:36;3.77;;;3.00;;
7029;SDS011;3556;53.500;10.176;2023-04-30T15:03:02;3.87;;;3.50;;
7029;SDS011;3556;53.500;10.176;2023-04-30T15:05:28;5.77;;;3.43;;
7029;SDS011;3556;53.500;10.176;2023-04-30T15:07:53;4.70;;;3.40;;
7029;SDS011;3556;53.500;10.176;2023-04-30T15:10:19;6.83;;;3.80;;
7029;SDS011;3556;53.500;10.176;2023-04-30T15:12:45;3.97;;;3.60;;
7029;SDS011;3556;53.500;10.176;2023-04-30T15:15:10;7.37;;;3.40;;
7029;SDS011;3556;53.500;10.176;2023-04-30T15:17:36;3.83;;;3.50;;
7029;SDS011;3556;53.500;10.176;2023-04-30T15:20:02;3.80;;;3.50;;
7029;SDS011;3556;53.500;10.176;2023-04-30T15:22:29;10.10;;;4.00;;
7029;SDS011;3556;53.500;10.176;2023-04-30T15:24:54;3.67;;;3.37;;
7029;SDS011;3556;53.500;10.176;2023-04-30T15:27:23;5.00;;;4.60;;